sensor_id;sensor_type;location;lat;lon;timestamp;P1;durP1;ratioP1;P2;durP2;ratioP2
73909;SDS011;62245;48.070;7.874;2024-03-02T00:00:06;10.70;;;3.70;;
73909;SDS011;62245;48.070;7.874;2024-03-02T00:02:42;7.57;;;2.60;;
73909;SDS011;62245;48.070;7.874;2024-03-02T00:05:13;10.82;;;3.67;;
73909;SDS011;62245;48.070;7.874;2024-03-02T00:07:43;10.18;;;4.05;;
73909;SDS011;62245;48.070;7.874;2024-03-02T00:10:22;7.68;;;2.60;;
73909;SDS011;62245;48.070;7.874;2024-03-02T00:12:53;7.80;;;2.78;;
73909;SDS011;62245;48.070;7.874;2024-03-02T00:18:10;6.13;;;2.17;;
73909;SDS011;62245;48.070;7.874;2024-03-02T00:20:37;6.78;;;2.30;;
73909;SDS011;62245;48.070;7.874;2024-03-02T00:23:04;6.30;;;1.83;;
73909;SDS011;62245;48.070;7.874;2024-03-02T00:25:40;9.13;;;3.10;;
73909;SDS011;62245;48.070;7.874;2024-03-02T00:28:14;7.40;;;2.45;;
73909;SDS011;62245;48.070;7.874;2024-03-02T00:36:01;4.43;;;1.45;;
73909;SDS011;62245;48.070;7.874;2024-03-02T00:38:28;5.35;;;1.70;;
73909;SDS011;62245;48.070;7.874;2024-03-02T00:40:54;6.10;;;1.98;;
73909;SDS011;62245;48.070;7.874;2024-03-02T00:43:38;6.53;;;2.03;;
73909;SDS011;62245;48.070;7.874;2024-03-02T00:46:12;4.05;;;1.52;;
73909;SDS011;62245;48.070;7.874;2024-03-02T00:48:47;4.32;;;1.50;;
73909;SDS011;62245;48.070;7.874;2024-03-02T00:51:19;4.03;;;1.63;;
73909;SDS011;62245;48.070;7.874;2024-03-02T00:53:46;8.07;;;2.20;;
73909;SDS011;62245;48.070;7.874;2024-03-02T00:56:11;5.10;;;1.80;;
73909;SDS011;62245;48.070;7.874;2024-03-02T00:58:37;7.87;;;2.93;;
73909;SDS011;62245;48.070;7.874;2024-03-02T01:01:03;5.15;;;2.35;;
73909;SDS011;62245;48.070;7.874;2024-03-02T01:03:28;10.15;;;4.20;;
73909;SDS011;62245;48.070;7.874;2024-03-02T01:05:55;6.90;;;2.60;;
73909;SDS011;62245;48.070;7.874;2024-03-02T01:08:20;9.47;;;4.20;;
73909;SDS011;62245;48.070;7.874;2024-03-02T01:10:46;5.30;;;2.10;;
73909;SDS011;62245;48.070;7.874;2024-03-02T01:13:11;6.97;;;2.80;;
73909;SDS011;62245;48.070;7.874;2024-03-02T01:15:36;5.70;;;2.00;;
73909;SDS011;62245;48.070;7.874;2024-03-02T01:18:01;6.20;;;2.10;;
73909;SDS011;62245;48.070;7.874;2024-03-02T01:20:27;6.00;;;2.05;;
73909;SDS011;62245;48.070;7.874;2024-03-02T01:22:52;4.60;;;1.67;;
73909;SDS011;62245;48.070;7.874;2024-03-02T01:25:18;3.85;;;1.65;;
73909;SDS011;62245;48.070;7.874;2024-03-02T01:27:43;4.30;;;1.53;;
73909;SDS011;62245;48.070;7.874;2024-03-02T01:30:08;3.43;;;1.27;;
73909;SDS011;62245;48.070;7.874;2024-03-02T01:32:34;5.18;;;1.83;;
73909;SDS011;62245;48.070;7.874;2024-03-02T01:34:59;5.77;;;2.00;;
73909;SDS011;62245;48.070;7.874;2024-03-02T01:37:24;5.10;;;1.87;;
73909;SDS011;62245;48.070;7.874;2024-03-02T01:39:50;6.17;;;2.27;;
73909;SDS011;62245;48.070;7.874;2024-03-02T01:42:15;7.18;;;2.65;;
73909;SDS011;62245;48.070;7.874;2024-03-02T01:44:40;5.97;;;2.00;;
73909;SDS011;62245;48.070;7.874;2024-03-02T01:47:06;5.83;;;2.10;;
73909;SDS011;62245;48.070;7.874;2024-03-02T01:49:31;6.22;;;1.98;;
73909;SDS011;62245;48.070;7.874;2024-03-02T01:51:59;5.47;;;1.83;;
73909;SDS011;62245;48.070;7.874;2024-03-02T01:54:24;7.85;;;2.90;;
73909;SDS011;62245;48.070;7.874;2024-03-02T01:56:49;8.23;;;2.60;;
73909;SDS011;62245;48.070;7.874;2024-03-02T01:59:15;5.65;;;2.40;;
73909;SDS011;62245;48.070;7.874;2024-03-02T02:01:40;5.20;;;2.00;;
73909;SDS011;62245;48.070;7.874;2024-03-02T02:04:05;4.80;;;1.58;;
73909;SDS011;62245;48.070;7.874;2024-03-02T02:06:31;4.88;;;1.60;;
73909;SDS011;62245;48.070;7.874;2024-03-02T02:08:57;4.30;;;1.52;;
73909;SDS011;62245;48.070;7.874;2024-03-02T02:11:22;4.00;;;1.37;;
73909;SDS011;62245;48.070;7.874;2024-03-02T02:13:47;4.80;;;1.30;;
73909;SDS011;62245;48.070;7.874;2024-03-02T02:16:13;4.17;;;1.33;;
73909;SDS011;62245;48.070;7.874;2024-03-02T02:18:38;5.03;;;1.63;;
73909;SDS011;62245;48.070;7.874;2024-03-02T02:21:03;3.37;;;1.30;;
73909;SDS011;62245;48.070;7.874;2024-03-02T02:23:29;3.45;;;1.30;;
73909;SDS011;62245;48.070;7.874;2024-03-02T02:25:54;3.67;;;1.50;;
73909;SDS011;62245;48.070;7.874;2024-03-02T02:28:19;2.87;;;1.20;;
73909;SDS011;62245;48.070;7.874;2024-03-02T02:30:45;3.65;;;1.30;;
73909;SDS011;62245;48.070;7.874;2024-03-02T02:33:10;3.97;;;1.42;;
73909;SDS011;62245;48.070;7.874;2024-03-02T02:35:35;5.25;;;1.38;;
73909;SDS011;62245;48.070;7.874;2024-03-02T02:38:01;4.80;;;1.30;;
73909;SDS011;62245;48.070;7.874;2024-03-02T02:40:27;4.57;;;1.35;;
73909;SDS011;62245;48.070;7.874;2024-03-02T02:42:55;4.15;;;1.40;;
73909;SDS011;62245;48.070;7.874;2024-03-02T02:45:21;3.67;;;1.17;;
73909;SDS011;62245;48.070;7.874;2024-03-02T02:47:46;4.20;;;1.23;;
73909;SDS011;62245;48.070;7.874;2024-03-02T02:50:12;3.30;;;1.10;;
73909;SDS011;62245;48.070;7.874;2024-03-02T02:52:38;3.03;;;1.05;;
73909;SDS011;62245;48.070;7.874;2024-03-02T02:55:05;3.33;;;1.25;;
73909;SDS011;62245;48.070;7.874;2024-03-02T02:57:35;3.53;;;1.10;;
73909;SDS011;62245;48.070;7.874;2024-03-02T03:00:03;3.58;;;1.10;;
73909;SDS011;62245;48.070;7.874;2024-03-02T03:02:34;4.25;;;1.20;;
73909;SDS011;62245;48.070;7.874;2024-03-02T03:04:59;2.97;;;1.00;;
73909;SDS011;62245;48.070;7.874;2024-03-02T03:07:25;4.10;;;1.60;;
73909;SDS011;62245;48.070;7.874;2024-03-02T03:09:50;2.57;;;0.83;;
73909;SDS011;62245;48.070;7.874;2024-03-02T03:12:15;3.50;;;1.30;;
73909;SDS011;62245;48.070;7.874;2024-03-02T03:14:41;3.60;;;1.23;;
73909;SDS011;62245;48.070;7.874;2024-03-02T03:17:06;4.20;;;1.43;;
73909;SDS011;62245;48.070;7.874;2024-03-02T03:19:33;4.10;;;1.23;;
73909;SDS011;62245;48.070;7.874;2024-03-02T03:21:58;3.03;;;1.02;;
73909;SDS011;62245;48.070;7.874;2024-03-02T03:24:23;3.27;;;1.03;;
73909;SDS011;62245;48.070;7.874;2024-03-02T03:26:49;2.73;;;0.80;;
73909;SDS011;62245;48.070;7.874;2024-03-02T03:29:14;3.50;;;1.13;;
73909;SDS011;62245;48.070;7.874;2024-03-02T03:31:39;2.60;;;1.20;;
73909;SDS011;62245;48.070;7.874;2024-03-02T03:34:04;3.83;;;1.20;;
73909;SDS011;62245;48.070;7.874;2024-03-02T03:36:30;2.80;;;0.93;;
73909;SDS011;62245;48.070;7.874;2024-03-02T03:38:55;3.43;;;1.07;;
73909;SDS011;62245;48.070;7.874;2024-03-02T03:41:20;3.77;;;0.97;;
73909;SDS011;62245;48.070;7.874;2024-03-02T03:43:45;2.93;;;0.87;;
73909;SDS011;62245;48.070;7.874;2024-03-02T03:46:11;2.00;;;0.83;;
73909;SDS011;62245;48.070;7.874;2024-03-02T03:48:36;4.27;;;1.20;;
73909;SDS011;62245;48.070;7.874;2024-03-02T03:51:01;2.53;;;0.90;;
73909;SDS011;62245;48.070;7.874;2024-03-02T03:53:27;2.78;;;0.88;;
73909;SDS011;62245;48.070;7.874;2024-03-02T03:55:52;2.83;;;1.10;;
73909;SDS011;62245;48.070;7.874;2024-03-02T03:58:17;1.90;;;0.80;;
73909;SDS011;62245;48.070;7.874;2024-03-02T04:00:43;3.45;;;1.15;;
73909;SDS011;62245;48.070;7.874;2024-03-02T04:03:09;3.63;;;0.95;;
73909;SDS011;62245;48.070;7.874;2024-03-02T04:05:34;3.10;;;0.90;;
73909;SDS011;62245;48.070;7.874;2024-03-02T04:07:59;2.03;;;1.00;;
73909;SDS011;62245;48.070;7.874;2024-03-02T04:10:25;1.83;;;0.88;;
73909;SDS011;62245;48.070;7.874;2024-03-02T04:12:50;2.63;;;0.82;;
73909;SDS011;62245;48.070;7.874;2024-03-02T04:15:16;1.70;;;0.80;;
73909;SDS011;62245;48.070;7.874;2024-03-02T04:17:43;2.45;;;0.90;;
73909;SDS011;62245;48.070;7.874;2024-03-02T04:20:08;2.00;;;0.80;;
73909;SDS011;62245;48.070;7.874;2024-03-02T04:22:34;4.53;;;1.10;;
73909;SDS011;62245;48.070;7.874;2024-03-02T04:25:00;3.25;;;1.10;;
73909;SDS011;62245;48.070;7.874;2024-03-02T04:27:26;2.70;;;1.08;;
73909;SDS011;62245;48.070;7.874;2024-03-02T04:29:51;2.63;;;1.17;;
73909;SDS011;62245;48.070;7.874;2024-03-02T04:32:16;3.40;;;1.30;;
73909;SDS011;62245;48.070;7.874;2024-03-02T04:34:42;3.05;;;1.05;;
73909;SDS011;62245;48.070;7.874;2024-03-02T04:37:07;3.00;;;1.00;;
73909;SDS011;62245;48.070;7.874;2024-03-02T04:39:34;2.00;;;0.82;;
73909;SDS011;62245;48.070;7.874;2024-03-02T04:42:00;3.35;;;1.27;;
73909;SDS011;62245;48.070;7.874;2024-03-02T04:44:25;2.53;;;1.00;;
73909;SDS011;62245;48.070;7.874;2024-03-02T04:46:50;2.70;;;1.10;;
73909;SDS011;62245;48.070;7.874;2024-03-02T04:49:16;4.27;;;1.50;;
73909;SDS011;62245;48.070;7.874;2024-03-02T04:51:41;2.87;;;1.00;;
73909;SDS011;62245;48.070;7.874;2024-03-02T04:54:06;3.87;;;1.27;;
73909;SDS011;62245;48.070;7.874;2024-03-02T04:56:31;3.77;;;1.10;;
73909;SDS011;62245;48.070;7.874;2024-03-02T04:58:57;3.50;;;1.10;;
73909;SDS011;62245;48.070;7.874;2024-03-02T05:01:22;2.78;;;1.20;;
73909;SDS011;62245;48.070;7.874;2024-03-02T05:03:47;2.92;;;1.20;;
73909;SDS011;62245;48.070;7.874;2024-03-02T05:06:13;2.93;;;1.10;;
73909;SDS011;62245;48.070;7.874;2024-03-02T05:08:38;2.20;;;0.83;;
73909;SDS011;62245;48.070;7.874;2024-03-02T05:11:03;1.77;;;0.73;;
73909;SDS011;62245;48.070;7.874;2024-03-02T05:13:47;3.08;;;1.00;;
73909;SDS011;62245;48.070;7.874;2024-03-02T05:16:13;3.17;;;0.85;;
73909;SDS011;62245;48.070;7.874;2024-03-02T05:18:38;3.03;;;1.15;;
73909;SDS011;62245;48.070;7.874;2024-03-02T05:21:03;2.47;;;0.80;;
73909;SDS011;62245;48.070;7.874;2024-03-02T05:23:29;3.75;;;0.93;;
73909;SDS011;62245;48.070;7.874;2024-03-02T05:25:54;3.00;;;1.10;;
73909;SDS011;62245;48.070;7.874;2024-03-02T05:28:19;2.73;;;0.90;;
73909;SDS011;62245;48.070;7.874;2024-03-02T05:30:44;2.83;;;0.97;;
73909;SDS011;62245;48.070;7.874;2024-03-02T05:33:10;2.10;;;0.90;;
73909;SDS011;62245;48.070;7.874;2024-03-02T05:35:35;3.47;;;1.05;;
73909;SDS011;62245;48.070;7.874;2024-03-02T05:38:00;4.63;;;1.30;;
73909;SDS011;62245;48.070;7.874;2024-03-02T05:40:26;2.37;;;0.97;;
73909;SDS011;62245;48.070;7.874;2024-03-02T05:42:51;3.13;;;1.00;;
73909;SDS011;62245;48.070;7.874;2024-03-02T05:45:16;2.33;;;0.80;;
73909;SDS011;62245;48.070;7.874;2024-03-02T05:47:41;3.03;;;1.13;;
73909;SDS011;62245;48.070;7.874;2024-03-02T05:50:07;2.40;;;1.13;;
73909;SDS011;62245;48.070;7.874;2024-03-02T05:52:32;4.13;;;1.40;;
73909;SDS011;62245;48.070;7.874;2024-03-02T05:54:57;4.40;;;1.50;;
73909;SDS011;62245;48.070;7.874;2024-03-02T05:57:23;7.20;;;1.80;;
73909;SDS011;62245;48.070;7.874;2024-03-02T06:00:17;6.60;;;2.13;;
73909;SDS011;62245;48.070;7.874;2024-03-02T06:02:42;5.88;;;1.90;;
73909;SDS011;62245;48.070;7.874;2024-03-02T06:05:08;5.47;;;1.70;;
73909;SDS011;62245;48.070;7.874;2024-03-02T06:07:33;3.42;;;1.25;;
73909;SDS011;62245;48.070;7.874;2024-03-02T06:09:59;10.83;;;4.07;;
73909;SDS011;62245;48.070;7.874;2024-03-02T06:12:24;5.40;;;2.00;;
73909;SDS011;62245;48.070;7.874;2024-03-02T06:14:49;3.53;;;1.33;;
73909;SDS011;62245;48.070;7.874;2024-03-02T06:17:14;3.27;;;1.07;;
73909;SDS011;62245;48.070;7.874;2024-03-02T06:19:40;3.37;;;1.07;;
73909;SDS011;62245;48.070;7.874;2024-03-02T06:22:05;3.08;;;1.05;;
73909;SDS011;62245;48.070;7.874;2024-03-02T06:24:31;2.63;;;1.00;;
73909;SDS011;62245;48.070;7.874;2024-03-02T06:26:56;8.20;;;2.78;;
73909;SDS011;62245;48.070;7.874;2024-03-02T06:29:21;4.57;;;1.40;;
73909;SDS011;62245;48.070;7.874;2024-03-02T06:31:46;2.30;;;0.87;;
73909;SDS011;62245;48.070;7.874;2024-03-02T06:34:12;2.30;;;1.00;;
73909;SDS011;62245;48.070;7.874;2024-03-02T06:36:38;2.93;;;0.80;;
73909;SDS011;62245;48.070;7.874;2024-03-02T06:39:05;1.55;;;0.70;;
73909;SDS011;62245;48.070;7.874;2024-03-02T06:41:30;3.10;;;1.10;;
73909;SDS011;62245;48.070;7.874;2024-03-02T06:43:56;16.02;;;4.28;;
73909;SDS011;62245;48.070;7.874;2024-03-02T06:46:25;38.42;;;11.45;;
73909;SDS011;62245;48.070;7.874;2024-03-02T06:48:50;25.10;;;9.07;;
73909;SDS011;62245;48.070;7.874;2024-03-02T06:51:16;10.37;;;3.90;;
73909;SDS011;62245;48.070;7.874;2024-03-02T06:53:41;7.43;;;2.67;;
73909;SDS011;62245;48.070;7.874;2024-03-02T06:56:07;5.67;;;2.53;;
73909;SDS011;62245;48.070;7.874;2024-03-02T06:58:33;4.32;;;2.00;;
73909;SDS011;62245;48.070;7.874;2024-03-02T07:00:58;4.50;;;2.03;;
73909;SDS011;62245;48.070;7.874;2024-03-02T07:03:25;4.60;;;1.85;;
73909;SDS011;62245;48.070;7.874;2024-03-02T07:05:50;4.65;;;1.92;;
73909;SDS011;62245;48.070;7.874;2024-03-02T07:08:16;4.03;;;1.70;;
73909;SDS011;62245;48.070;7.874;2024-03-02T07:10:41;4.70;;;2.00;;
73909;SDS011;62245;48.070;7.874;2024-03-02T07:13:06;6.10;;;2.67;;
73909;SDS011;62245;48.070;7.874;2024-03-02T07:15:32;17.30;;;6.97;;
73909;SDS011;62245;48.070;7.874;2024-03-02T07:18:35;6.78;;;2.47;;
73909;SDS011;62245;48.070;7.874;2024-03-02T07:21:05;9.48;;;2.63;;
73909;SDS011;62245;48.070;7.874;2024-03-02T07:23:31;6.93;;;3.00;;
73909;SDS011;62245;48.070;7.874;2024-03-02T07:25:57;8.15;;;3.60;;
73909;SDS011;62245;48.070;7.874;2024-03-02T07:28:22;7.30;;;3.60;;
73909;SDS011;62245;48.070;7.874;2024-03-02T07:30:58;7.03;;;2.80;;
73909;SDS011;62245;48.070;7.874;2024-03-02T07:33:29;9.18;;;3.65;;
73909;SDS011;62245;48.070;7.874;2024-03-02T07:35:55;6.07;;;2.45;;
73909;SDS011;62245;48.070;7.874;2024-03-02T07:38:21;4.72;;;1.75;;
73909;SDS011;62245;48.070;7.874;2024-03-02T07:40:47;5.72;;;1.60;;
73909;SDS011;62245;48.070;7.874;2024-03-02T07:43:15;5.63;;;2.05;;
73909;SDS011;62245;48.070;7.874;2024-03-02T07:45:41;5.50;;;1.92;;
73909;SDS011;62245;48.070;7.874;2024-03-02T07:48:06;6.47;;;2.10;;
73909;SDS011;62245;48.070;7.874;2024-03-02T07:50:31;7.32;;;2.20;;
73909;SDS011;62245;48.070;7.874;2024-03-02T07:52:59;7.25;;;2.92;;
73909;SDS011;62245;48.070;7.874;2024-03-02T07:55:25;6.25;;;2.80;;
73909;SDS011;62245;48.070;7.874;2024-03-02T07:57:50;7.20;;;3.63;;
73909;SDS011;62245;48.070;7.874;2024-03-02T08:00:16;6.03;;;2.08;;
73909;SDS011;62245;48.070;7.874;2024-03-02T08:02:41;3.72;;;1.65;;
73909;SDS011;62245;48.070;7.874;2024-03-02T08:05:07;5.63;;;1.98;;
73909;SDS011;62245;48.070;7.874;2024-03-02T08:07:33;4.10;;;1.50;;
73909;SDS011;62245;48.070;7.874;2024-03-02T08:09:58;3.53;;;1.48;;
73909;SDS011;62245;48.070;7.874;2024-03-02T08:12:23;10.87;;;3.07;;
73909;SDS011;62245;48.070;7.874;2024-03-02T08:14:48;6.60;;;1.83;;
73909;SDS011;62245;48.070;7.874;2024-03-02T08:17:14;4.03;;;1.60;;
73909;SDS011;62245;48.070;7.874;2024-03-02T08:19:39;4.15;;;1.40;;
73909;SDS011;62245;48.070;7.874;2024-03-02T08:22:05;3.80;;;1.40;;
73909;SDS011;62245;48.070;7.874;2024-03-02T08:24:30;2.08;;;1.00;;
73909;SDS011;62245;48.070;7.874;2024-03-02T08:26:56;4.65;;;1.35;;
73909;SDS011;62245;48.070;7.874;2024-03-02T08:29:21;2.93;;;1.13;;
73909;SDS011;62245;48.070;7.874;2024-03-02T08:31:47;3.27;;;0.90;;
73909;SDS011;62245;48.070;7.874;2024-03-02T08:34:12;3.30;;;1.20;;
73909;SDS011;62245;48.070;7.874;2024-03-02T08:36:37;3.67;;;1.20;;
73909;SDS011;62245;48.070;7.874;2024-03-02T08:39:03;2.55;;;1.15;;
73909;SDS011;62245;48.070;7.874;2024-03-02T08:41:28;3.47;;;1.30;;
73909;SDS011;62245;48.070;7.874;2024-03-02T08:43:53;2.33;;;1.15;;
73909;SDS011;62245;48.070;7.874;2024-03-02T08:46:19;2.55;;;1.13;;
73909;SDS011;62245;48.070;7.874;2024-03-02T08:48:44;3.47;;;1.35;;
73909;SDS011;62245;48.070;7.874;2024-03-02T08:51:10;2.83;;;1.00;;
73909;SDS011;62245;48.070;7.874;2024-03-02T08:53:35;3.20;;;1.23;;
73909;SDS011;62245;48.070;7.874;2024-03-02T08:56:01;3.58;;;1.10;;
73909;SDS011;62245;48.070;7.874;2024-03-02T08:58:27;2.60;;;1.10;;
73909;SDS011;62245;48.070;7.874;2024-03-02T09:00:52;1.97;;;0.87;;
73909;SDS011;62245;48.070;7.874;2024-03-02T09:03:17;3.95;;;1.25;;
73909;SDS011;62245;48.070;7.874;2024-03-02T09:05:43;3.10;;;1.20;;
73909;SDS011;62245;48.070;7.874;2024-03-02T09:08:08;4.03;;;1.27;;
73909;SDS011;62245;48.070;7.874;2024-03-02T09:10:33;4.50;;;1.30;;
73909;SDS011;62245;48.070;7.874;2024-03-02T09:12:59;4.73;;;2.53;;
73909;SDS011;62245;48.070;7.874;2024-03-02T09:15:24;4.40;;;1.80;;
73909;SDS011;62245;48.070;7.874;2024-03-02T09:17:49;5.17;;;1.70;;
73909;SDS011;62245;48.070;7.874;2024-03-02T09:20:15;3.30;;;1.37;;
73909;SDS011;62245;48.070;7.874;2024-03-02T09:22:41;5.85;;;1.33;;
73909;SDS011;62245;48.070;7.874;2024-03-02T09:25:07;2.90;;;1.05;;
73909;SDS011;62245;48.070;7.874;2024-03-02T09:27:35;2.35;;;1.08;;
73909;SDS011;62245;48.070;7.874;2024-03-02T09:30:01;3.25;;;1.00;;
73909;SDS011;62245;48.070;7.874;2024-03-02T09:32:27;3.92;;;1.00;;
73909;SDS011;62245;48.070;7.874;2024-03-02T09:34:52;2.77;;;0.97;;
73909;SDS011;62245;48.070;7.874;2024-03-02T09:37:18;2.88;;;0.93;;
73909;SDS011;62245;48.070;7.874;2024-03-02T09:39:43;4.13;;;1.00;;
73909;SDS011;62245;48.070;7.874;2024-03-02T09:42:10;1.20;;;0.80;;
73909;SDS011;62245;48.070;7.874;2024-03-02T09:44:36;1.85;;;0.65;;
73909;SDS011;62245;48.070;7.874;2024-03-02T09:47:02;2.78;;;0.68;;
73909;SDS011;62245;48.070;7.874;2024-03-02T09:49:27;2.00;;;0.57;;
73909;SDS011;62245;48.070;7.874;2024-03-02T09:51:52;1.08;;;0.60;;
73909;SDS011;62245;48.070;7.874;2024-03-02T09:54:18;1.83;;;0.70;;
73909;SDS011;62245;48.070;7.874;2024-03-02T09:56:44;2.45;;;0.90;;
73909;SDS011;62245;48.070;7.874;2024-03-02T09:59:10;1.60;;;0.85;;
73909;SDS011;62245;48.070;7.874;2024-03-02T10:01:35;4.95;;;1.52;;
73909;SDS011;62245;48.070;7.874;2024-03-02T10:04:01;2.55;;;0.90;;
73909;SDS011;62245;48.070;7.874;2024-03-02T10:06:27;1.38;;;0.68;;
73909;SDS011;62245;48.070;7.874;2024-03-02T10:08:54;0.90;;;0.40;;
73909;SDS011;62245;48.070;7.874;2024-03-02T10:11:25;1.60;;;0.65;;
73909;SDS011;62245;48.070;7.874;2024-03-02T10:14:05;2.60;;;0.80;;
73909;SDS011;62245;48.070;7.874;2024-03-02T10:16:35;2.25;;;0.60;;
73909;SDS011;62245;48.070;7.874;2024-03-02T10:19:15;1.23;;;0.50;;
73909;SDS011;62245;48.070;7.874;2024-03-02T10:21:41;1.60;;;0.80;;
73909;SDS011;62245;48.070;7.874;2024-03-02T10:24:07;0.93;;;0.65;;
73909;SDS011;62245;48.070;7.874;2024-03-02T10:26:32;2.63;;;0.52;;
73909;SDS011;62245;48.070;7.874;2024-03-02T10:28:58;3.37;;;0.90;;
73909;SDS011;62245;48.070;7.874;2024-03-02T10:31:24;0.88;;;0.50;;
73909;SDS011;62245;48.070;7.874;2024-03-02T10:33:52;1.63;;;0.70;;
73909;SDS011;62245;48.070;7.874;2024-03-02T10:36:20;1.55;;;0.82;;
73909;SDS011;62245;48.070;7.874;2024-03-02T10:38:45;2.00;;;0.73;;
73909;SDS011;62245;48.070;7.874;2024-03-02T10:41:15;2.33;;;0.73;;
73909;SDS011;62245;48.070;7.874;2024-03-02T10:43:42;1.70;;;0.70;;
73909;SDS011;62245;48.070;7.874;2024-03-02T10:46:08;1.20;;;0.70;;
73909;SDS011;62245;48.070;7.874;2024-03-02T10:48:34;2.22;;;0.60;;
73909;SDS011;62245;48.070;7.874;2024-03-02T10:51:01;1.45;;;0.70;;
73909;SDS011;62245;48.070;7.874;2024-03-02T10:53:27;2.38;;;0.82;;
73909;SDS011;62245;48.070;7.874;2024-03-02T10:55:54;1.50;;;0.73;;
73909;SDS011;62245;48.070;7.874;2024-03-02T10:58:27;1.75;;;0.80;;
73909;SDS011;62245;48.070;7.874;2024-03-02T11:00:57;1.73;;;0.77;;
73909;SDS011;62245;48.070;7.874;2024-03-02T11:03:27;2.55;;;1.13;;
73909;SDS011;62245;48.070;7.874;2024-03-02T11:06:00;3.45;;;1.38;;
73909;SDS011;62245;48.070;7.874;2024-03-02T11:08:25;1.92;;;1.20;;
73909;SDS011;62245;48.070;7.874;2024-03-02T11:10:57;2.88;;;1.00;;
73909;SDS011;62245;48.070;7.874;2024-03-02T11:13:31;1.90;;;0.80;;
73909;SDS011;62245;48.070;7.874;2024-03-02T11:15:58;1.80;;;1.10;;
73909;SDS011;62245;48.070;7.874;2024-03-02T11:18:30;2.10;;;0.98;;
73909;SDS011;62245;48.070;7.874;2024-03-02T11:20:57;2.22;;;0.75;;
73909;SDS011;62245;48.070;7.874;2024-03-02T11:23:33;2.40;;;0.73;;
73909;SDS011;62245;48.070;7.874;2024-03-02T11:26:18;1.38;;;0.60;;
73909;SDS011;62245;48.070;7.874;2024-03-02T11:28:47;2.75;;;0.85;;
73909;SDS011;62245;48.070;7.874;2024-03-02T11:31:12;2.83;;;1.00;;
73909;SDS011;62245;48.070;7.874;2024-03-02T11:33:38;1.27;;;0.63;;
73909;SDS011;62245;48.070;7.874;2024-03-02T11:36:03;2.65;;;0.73;;
73909;SDS011;62245;48.070;7.874;2024-03-02T11:38:32;2.20;;;0.63;;
73909;SDS011;62245;48.070;7.874;2024-03-02T11:41:01;2.97;;;0.80;;
73909;SDS011;62245;48.070;7.874;2024-03-02T11:43:30;1.67;;;0.60;;
73909;SDS011;62245;48.070;7.874;2024-03-02T11:45:59;2.70;;;0.98;;
73909;SDS011;62245;48.070;7.874;2024-03-02T11:48:26;1.17;;;0.57;;
73909;SDS011;62245;48.070;7.874;2024-03-02T11:50:51;1.13;;;0.60;;
73909;SDS011;62245;48.070;7.874;2024-03-02T11:53:18;2.03;;;0.70;;
73909;SDS011;62245;48.070;7.874;2024-03-02T11:55:45;1.60;;;0.70;;
73909;SDS011;62245;48.070;7.874;2024-03-02T11:58:11;2.75;;;0.60;;
73909;SDS011;62245;48.070;7.874;2024-03-02T12:00:45;2.22;;;0.98;;
73909;SDS011;62245;48.070;7.874;2024-03-02T12:03:12;1.33;;;0.65;;
73909;SDS011;62245;48.070;7.874;2024-03-02T12:05:38;1.38;;;0.68;;
73909;SDS011;62245;48.070;7.874;2024-03-02T12:08:04;2.30;;;0.88;;
73909;SDS011;62245;48.070;7.874;2024-03-02T12:10:31;1.95;;;0.73;;
73909;SDS011;62245;48.070;7.874;2024-03-02T12:13:05;1.55;;;0.63;;
73909;SDS011;62245;48.070;7.874;2024-03-02T12:15:38;0.82;;;0.52;;
73909;SDS011;62245;48.070;7.874;2024-03-02T12:18:04;3.03;;;0.80;;
73909;SDS011;62245;48.070;7.874;2024-03-02T12:20:30;2.45;;;0.73;;
73909;SDS011;62245;48.070;7.874;2024-03-02T12:22:57;3.50;;;0.73;;
73909;SDS011;62245;48.070;7.874;2024-03-02T12:25:24;3.08;;;1.23;;
73909;SDS011;62245;48.070;7.874;2024-03-02T12:27:53;2.53;;;1.00;;
73909;SDS011;62245;48.070;7.874;2024-03-02T12:30:20;1.13;;;0.75;;
73909;SDS011;62245;48.070;7.874;2024-03-02T12:32:47;1.75;;;0.82;;
73909;SDS011;62245;48.070;7.874;2024-03-02T12:35:13;1.88;;;0.73;;
73909;SDS011;62245;48.070;7.874;2024-03-02T12:40:11;1.42;;;0.80;;
73909;SDS011;62245;48.070;7.874;2024-03-02T12:42:37;1.20;;;0.60;;
73909;SDS011;62245;48.070;7.874;2024-03-02T12:45:03;1.77;;;0.75;;
73909;SDS011;62245;48.070;7.874;2024-03-02T12:47:29;1.98;;;0.85;;
73909;SDS011;62245;48.070;7.874;2024-03-02T12:49:55;2.35;;;0.80;;
73909;SDS011;62245;48.070;7.874;2024-03-02T12:52:21;2.50;;;0.90;;
73909;SDS011;62245;48.070;7.874;2024-03-02T12:54:46;1.48;;;0.60;;
73909;SDS011;62245;48.070;7.874;2024-03-02T12:57:16;1.90;;;0.70;;
73909;SDS011;62245;48.070;7.874;2024-03-02T12:59:45;1.88;;;0.77;;
73909;SDS011;62245;48.070;7.874;2024-03-02T13:02:16;2.42;;;0.68;;
73909;SDS011;62245;48.070;7.874;2024-03-02T13:04:43;2.45;;;0.70;;
73909;SDS011;62245;48.070;7.874;2024-03-02T13:07:08;3.80;;;0.85;;
73909;SDS011;62245;48.070;7.874;2024-03-02T13:09:34;1.63;;;0.73;;
73909;SDS011;62245;48.070;7.874;2024-03-02T13:12:00;1.08;;;0.60;;
73909;SDS011;62245;48.070;7.874;2024-03-02T13:14:26;1.38;;;0.68;;
73909;SDS011;62245;48.070;7.874;2024-03-02T13:16:51;1.83;;;0.70;;
73909;SDS011;62245;48.070;7.874;2024-03-02T13:19:17;4.15;;;0.80;;
73909;SDS011;62245;48.070;7.874;2024-03-02T13:21:46;5.40;;;2.38;;
73909;SDS011;62245;48.070;7.874;2024-03-02T13:24:11;7.38;;;3.67;;
73909;SDS011;62245;48.070;7.874;2024-03-02T13:26:36;7.73;;;3.63;;
73909;SDS011;62245;48.070;7.874;2024-03-02T13:29:02;3.90;;;1.20;;
73909;SDS011;62245;48.070;7.874;2024-03-02T13:31:27;2.43;;;1.00;;
73909;SDS011;62245;48.070;7.874;2024-03-02T13:33:52;4.90;;;1.90;;
73909;SDS011;62245;48.070;7.874;2024-03-02T13:36:18;4.85;;;1.70;;
73909;SDS011;62245;48.070;7.874;2024-03-02T13:38:44;2.90;;;0.90;;
73909;SDS011;62245;48.070;7.874;2024-03-02T13:41:09;3.92;;;1.33;;
73909;SDS011;62245;48.070;7.874;2024-03-02T13:43:36;3.63;;;1.30;;
73909;SDS011;62245;48.070;7.874;2024-03-02T13:46:03;4.95;;;1.67;;
73909;SDS011;62245;48.070;7.874;2024-03-02T13:48:29;3.95;;;1.60;;
73909;SDS011;62245;48.070;7.874;2024-03-02T13:50:55;3.42;;;1.52;;
73909;SDS011;62245;48.070;7.874;2024-03-02T13:53:21;3.35;;;0.98;;
73909;SDS011;62245;48.070;7.874;2024-03-02T13:55:46;1.67;;;0.90;;
73909;SDS011;62245;48.070;7.874;2024-03-02T13:58:11;3.42;;;1.05;;
73909;SDS011;62245;48.070;7.874;2024-03-02T14:00:37;3.15;;;0.95;;
73909;SDS011;62245;48.070;7.874;2024-03-02T14:03:04;2.22;;;0.80;;
73909;SDS011;62245;48.070;7.874;2024-03-02T14:05:31;3.17;;;1.10;;
73909;SDS011;62245;48.070;7.874;2024-03-02T14:07:57;4.03;;;0.90;;
73909;SDS011;62245;48.070;7.874;2024-03-02T14:10:23;2.22;;;0.80;;
73909;SDS011;62245;48.070;7.874;2024-03-02T14:12:49;1.05;;;0.75;;
73909;SDS011;62245;48.070;7.874;2024-03-02T14:15:14;2.13;;;0.90;;
73909;SDS011;62245;48.070;7.874;2024-03-02T14:17:40;4.25;;;0.95;;
73909;SDS011;62245;48.070;7.874;2024-03-02T14:20:05;2.45;;;0.93;;
73909;SDS011;62245;48.070;7.874;2024-03-02T14:22:31;2.75;;;1.08;;
73909;SDS011;62245;48.070;7.874;2024-03-02T14:24:57;2.97;;;0.90;;
73909;SDS011;62245;48.070;7.874;2024-03-02T14:27:22;3.03;;;0.95;;
73909;SDS011;62245;48.070;7.874;2024-03-02T14:29:47;3.35;;;1.00;;
73909;SDS011;62245;48.070;7.874;2024-03-02T14:32:13;2.87;;;1.00;;
73909;SDS011;62245;48.070;7.874;2024-03-02T14:34:38;2.22;;;0.90;;
73909;SDS011;62245;48.070;7.874;2024-03-02T14:37:04;3.63;;;0.90;;
73909;SDS011;62245;48.070;7.874;2024-03-02T14:39:29;5.47;;;1.30;;
73909;SDS011;62245;48.070;7.874;2024-03-02T14:41:59;4.88;;;1.75;;
73909;SDS011;62245;48.070;7.874;2024-03-02T14:44:25;5.15;;;1.83;;
73909;SDS011;62245;48.070;7.874;2024-03-02T14:46:50;5.63;;;2.00;;
73909;SDS011;62245;48.070;7.874;2024-03-02T14:49:16;6.07;;;2.28;;
73909;SDS011;62245;48.070;7.874;2024-03-02T14:51:41;6.38;;;2.20;;
73909;SDS011;62245;48.070;7.874;2024-03-02T14:54:07;5.50;;;2.10;;